< Typhoon 202219 2022 Season Typhoon 202221 >
Typhoon 202220 (NESAT)
General InformationTrack Information on Google MapsDetailed Wind InformationForecast History on Google MapsAccess Analytics MapList of All Images || NewsDisaster Info.JMA Disaster Info. XMLWeblogTrackbackTyphoon FrontTwiphoonTyphoon Now!Typhoon ImaginationResourceGoogle EarthGE AnimationAtom FeedGeoJSON
Detalied Best Track (Time Zone = UTC)
Year Month Day Hour Lat. Long. Pressure (hPa) Wind (kt) Class Image Chart
2022 10 14 12 19.9 128.6 998 30 2 Image Chart
2022 10 14 15 19.2 128.2 998 30 2 Image Chart
2022 10 14 18 19.6 127.4 996 30 2 Image Chart
2022 10 14 21 19.4 126.8 998 30 2 Image Chart
2022 10 15 00 19.0 126.6 1000 30 2 Image Chart
2022 10 15 03 19.0 126.1 1000 30 2 Image Chart
2022 10 15 06 19.1 124.2 998 35 3 Image Chart
2022 10 15 09 19.0 123.4 996 35 3 Image Chart
2022 10 15 12 19.0 123.2 994 40 3 Image Chart
2022 10 15 15 19.0 122.6 994 40 3 Image Chart
2022 10 15 18 19.2 122.3 990 45 3 Image Chart
2022 10 15 21 19.3 121.8 985 50 4 Image Chart
2022 10 16 00 19.2 121.0 985 50 4 Image Chart
2022 10 16 03 19.3 120.4 985 50 4 Image Chart
2022 10 16 06 19.6 120.0 985 55 4 Image Chart
2022 10 16 09 19.7 119.5 985 55 4 Image Chart
2022 10 16 12 19.9 118.9 985 55 4 Image Chart
2022 10 16 15 20.0 118.2 985 55 4 Image Chart
2022 10 16 18 19.9 117.7 985 55 4 Image Chart
2022 10 16 21 19.9 117.5 985 55 4 Image Chart
2022 10 17 00 19.7 117.2 980 60 4 Image Chart
2022 10 17 03 19.6 116.8 980 60 4 Image Chart
2022 10 17 06 19.5 116.3 975 65 5 Image Chart
2022 10 17 09 19.4 115.9 975 65 5 Image Chart
2022 10 17 12 19.1 115.4 970 70 5 Image Chart
2022 10 17 15 19.0 115.1 970 70 5 Image Chart
2022 10 17 18 19.0 114.5 965 75 5 Image Chart
2022 10 17 21 18.7 114.2 965 75 5 Image Chart
2022 10 18 00 18.4 113.6 965 75 5 Image Chart
2022 10 18 03 18.0 113.3 965 75 5 Image Chart
2022 10 18 06 18.0 113.2 965 75 5 Image Chart
2022 10 18 09 17.8 112.8 965 75 5 Image Chart
2022 10 18 12 17.8 112.5 970 70 5 Image Chart
2022 10 18 15 17.7 112.2 970 70 5 Image Chart
2022 10 18 18 17.5 111.8 975 65 5 Image Chart
2022 10 18 21 17.5 111.5 980 60 4 Image Chart
2022 10 19 00 17.4 110.9 985 55 4 Image Chart
2022 10 19 03 17.3 110.4 985 55 4 Image Chart
2022 10 19 06 17.0 110.2 992 45 3 Image Chart
2022 10 19 09 17.1 109.8 992 45 3 Image Chart
2022 10 19 12 17.2 109.3 998 40 3 Image Chart
2022 10 19 15 17.3 108.8 1000 40 3 Image Chart
2022 10 19 18 17.5 108.6 1002 35 3 Image Chart
2022 10 19 21 17.5 108.5 1002 35 3 Image Chart
2022 10 20 00 17.4 108.5 1004 35 3 Image Chart
2022 10 20 03 17.6 108.3 1006 35 3 Image Chart
2022 10 20 06 18.0 108.0 1008 0 2 Image Chart
Japan Meteorological Agency Best Track Data | Correction Date : 2022-10-20
< Typhoon 202219 2022 Season Typhoon 202221 >

Help